sensor_id;sensor_type;location;lat;lon;timestamp;P1;P2;P0
60058;PMS7003;45932;50.658;3.022;2022-09-09T00:00:22;1.00;1.00;0.00
60058;PMS7003;45932;50.658;3.022;2022-09-09T00:02:51;0.67;0.00;0.00
60058;PMS7003;45932;50.658;3.022;2022-09-09T00:08:14;1.00;1.00;0.00
60058;PMS7003;45932;50.658;3.022;2022-09-09T00:10:45;0.33;0.33;0.00
60058;PMS7003;45932;50.658;3.022;2022-09-09T00:13:21;2.00;0.33;0.33
60058;PMS7003;45932;50.658;3.022;2022-09-09T00:22:00;1.00;1.00;0.00
60058;PMS7003;45932;50.658;3.022;2022-09-09T00:30:24;2.00;0.00;0.00
60058;PMS7003;45932;50.658;3.022;2022-09-09T00:32:58;1.00;1.00;0.00
60058;PMS7003;45932;50.658;3.022;2022-09-09T00:35:27;4.33;3.00;2.00
60058;PMS7003;45932;50.658;3.022;2022-09-09T00:38:33;3.00;2.00;1.00
60058;PMS7003;45932;50.658;3.022;2022-09-09T00:40:59;3.33;2.00;2.00
60058;PMS7003;45932;50.658;3.022;2022-09-09T00:43:31;4.00;2.00;2.00
60058;PMS7003;45932;50.658;3.022;2022-09-09T00:57:28;2.00;0.33;0.00
60058;PMS7003;45932;50.658;3.022;2022-09-09T01:11:22;2.00;2.00;1.00
60058;PMS7003;45932;50.658;3.022;2022-09-09T01:13:52;0.00;0.00;0.00
60058;PMS7003;45932;50.658;3.022;2022-09-09T01:16:25;0.00;0.00;0.00
60058;PMS7003;45932;50.658;3.022;2022-09-09T01:18:53;1.33;0.00;0.00
60058;PMS7003;45932;50.658;3.022;2022-09-09T01:21:34;0.67;0.67;0.00
60058;PMS7003;45932;50.658;3.022;2022-09-09T01:24:22;1.33;1.33;0.33
60058;PMS7003;45932;50.658;3.022;2022-09-09T01:26:52;0.00;0.00;0.00
60058;PMS7003;45932;50.658;3.022;2022-09-09T01:29:23;1.00;1.00;0.67
60058;PMS7003;45932;50.658;3.022;2022-09-09T01:32:02;0.00;0.00;0.00
60058;PMS7003;45932;50.658;3.022;2022-09-09T01:34:48;2.00;1.00;1.00
60058;PMS7003;45932;50.658;3.022;2022-09-09T01:37:15;2.00;2.00;1.00
60058;PMS7003;45932;50.658;3.022;2022-09-09T01:39:41;1.67;1.67;0.00
60058;PMS7003;45932;50.658;3.022;2022-09-09T01:42:10;1.33;1.33;1.00
60058;PMS7003;45932;50.658;3.022;2022-09-09T01:44:38;1.00;1.00;1.00
60058;PMS7003;45932;50.658;3.022;2022-09-09T01:47:04;2.00;2.00;1.00
60058;PMS7003;45932;50.658;3.022;2022-09-09T01:49:30;2.33;1.00;1.00
60058;PMS7003;45932;50.658;3.022;2022-09-09T01:51:57;2.00;1.00;0.67
60058;PMS7003;45932;50.658;3.022;2022-09-09T01:54:24;2.67;2.00;1.00
60058;PMS7003;45932;50.658;3.022;2022-09-09T02:07:36;2.00;1.00;0.00
60058;PMS7003;45932;50.658;3.022;2022-09-09T02:10:14;1.00;1.00;1.00
60058;PMS7003;45932;50.658;3.022;2022-09-09T02:12:46;1.00;1.00;1.00
60058;PMS7003;45932;50.658;3.022;2022-09-09T02:15:23;2.00;1.00;1.00
60058;PMS7003;45932;50.658;3.022;2022-09-09T02:17:57;1.00;1.00;1.00
60058;PMS7003;45932;50.658;3.022;2022-09-09T02:20:26;4.33;2.00;1.00
60058;PMS7003;45932;50.658;3.022;2022-09-09T02:22:57;4.00;2.00;1.00
60058;PMS7003;45932;50.658;3.022;2022-09-09T02:25:24;3.00;1.67;1.00
60058;PMS7003;45932;50.658;3.022;2022-09-09T02:27:53;2.67;1.00;1.00
60058;PMS7003;45932;50.658;3.022;2022-09-09T02:30:19;2.33;2.33;1.00
60058;PMS7003;45932;50.658;3.022;2022-09-09T02:32:45;1.33;0.67;0.67
60058;PMS7003;45932;50.658;3.022;2022-09-09T02:35:14;3.00;3.00;1.00
60058;PMS7003;45932;50.658;3.022;2022-09-09T02:37:45;3.00;2.00;2.00
60058;PMS7003;45932;50.658;3.022;2022-09-09T02:40:13;2.33;1.00;0.00
60058;PMS7003;45932;50.658;3.022;2022-09-09T02:42:41;1.00;1.00;0.67
60058;PMS7003;45932;50.658;3.022;2022-09-09T02:45:08;4.33;1.67;1.00
60058;PMS7003;45932;50.658;3.022;2022-09-09T02:47:36;2.00;2.00;1.00
60058;PMS7003;45932;50.658;3.022;2022-09-09T02:50:19;2.00;0.33;0.33
60058;PMS7003;45932;50.658;3.022;2022-09-09T02:53:00;2.67;2.00;1.00
60058;PMS7003;45932;50.658;3.022;2022-09-09T02:58:19;1.33;1.33;1.00
60058;PMS7003;45932;50.658;3.022;2022-09-09T03:00:46;3.00;1.67;1.00
60058;PMS7003;45932;50.658;3.022;2022-09-09T03:03:12;2.00;2.00;1.00
60058;PMS7003;45932;50.658;3.022;2022-09-09T03:05:38;2.67;2.67;1.67
60058;PMS7003;45932;50.658;3.022;2022-09-09T03:08:03;3.33;1.33;1.00
60058;PMS7003;45932;50.658;3.022;2022-09-09T03:10:30;3.00;2.33;1.00
60058;PMS7003;45932;50.658;3.022;2022-09-09T03:12:56;2.00;1.00;0.33
60058;PMS7003;45932;50.658;3.022;2022-09-09T03:15:22;3.33;2.00;1.33
60058;PMS7003;45932;50.658;3.022;2022-09-09T03:17:47;3.00;2.33;1.00
60058;PMS7003;45932;50.658;3.022;2022-09-09T03:20:12;2.33;2.00;1.00
60058;PMS7003;45932;50.658;3.022;2022-09-09T03:22:38;2.00;2.00;1.00
60058;PMS7003;45932;50.658;3.022;2022-09-09T03:25:03;2.00;2.00;1.67
60058;PMS7003;45932;50.658;3.022;2022-09-09T03:27:30;8.33;4.67;2.00
60058;PMS7003;45932;50.658;3.022;2022-09-09T03:29:56;4.00;2.00;1.00
60058;PMS7003;45932;50.658;3.022;2022-09-09T03:32:22;2.00;2.00;1.67
60058;PMS7003;45932;50.658;3.022;2022-09-09T03:34:48;2.00;2.00;2.00
60058;PMS7003;45932;50.658;3.022;2022-09-09T03:37:15;5.00;2.00;1.00
60058;PMS7003;45932;50.658;3.022;2022-09-09T03:39:41;4.00;1.00;1.00
60058;PMS7003;45932;50.658;3.022;2022-09-09T03:42:06;2.67;1.33;1.00
60058;PMS7003;45932;50.658;3.022;2022-09-09T03:44:31;1.00;1.00;0.00
60058;PMS7003;45932;50.658;3.022;2022-09-09T03:46:57;1.33;1.33;1.00
60058;PMS7003;45932;50.658;3.022;2022-09-09T03:49:25;2.33;1.67;0.67
60058;PMS7003;45932;50.658;3.022;2022-09-09T03:51:52;2.33;1.33;1.00
60058;PMS7003;45932;50.658;3.022;2022-09-09T03:54:17;3.00;3.00;2.00
60058;PMS7003;45932;50.658;3.022;2022-09-09T03:56:42;2.00;1.00;1.00
60058;PMS7003;45932;50.658;3.022;2022-09-09T03:59:08;4.00;3.33;2.00
60058;PMS7003;45932;50.658;3.022;2022-09-09T04:01:36;2.67;2.00;1.00
60058;PMS7003;45932;50.658;3.022;2022-09-09T04:04:01;4.33;1.33;1.00
60058;PMS7003;45932;50.658;3.022;2022-09-09T04:06:27;2.00;1.00;0.33
60058;PMS7003;45932;50.658;3.022;2022-09-09T04:08:52;3.33;1.67;1.00
60058;PMS7003;45932;50.658;3.022;2022-09-09T04:11:18;1.33;1.00;1.00
60058;PMS7003;45932;50.658;3.022;2022-09-09T04:13:44;1.33;1.33;0.33
60058;PMS7003;45932;50.658;3.022;2022-09-09T04:16:10;3.00;1.00;1.00
60058;PMS7003;45932;50.658;3.022;2022-09-09T04:18:38;1.00;1.00;1.00
60058;PMS7003;45932;50.658;3.022;2022-09-09T04:21:03;4.67;2.00;1.00
60058;PMS7003;45932;50.658;3.022;2022-09-09T04:23:31;2.33;2.00;1.33
60058;PMS7003;45932;50.658;3.022;2022-09-09T04:25:56;0.00;0.00;0.00
60058;PMS7003;45932;50.658;3.022;2022-09-09T04:28:24;3.00;3.00;2.00
60058;PMS7003;45932;50.658;3.022;2022-09-09T04:30:51;1.33;1.33;0.67
60058;PMS7003;45932;50.658;3.022;2022-09-09T04:33:17;3.33;2.00;1.33
60058;PMS7003;45932;50.658;3.022;2022-09-09T04:35:47;1.33;1.33;0.00
60058;PMS7003;45932;50.658;3.022;2022-09-09T04:38:14;1.67;1.67;1.00
60058;PMS7003;45932;50.658;3.022;2022-09-09T04:40:43;2.00;2.00;1.67
60058;PMS7003;45932;50.658;3.022;2022-09-09T04:43:11;1.00;1.00;0.00
60058;PMS7003;45932;50.658;3.022;2022-09-09T04:45:37;4.00;2.00;1.00
60058;PMS7003;45932;50.658;3.022;2022-09-09T04:48:04;1.33;1.33;1.00
60058;PMS7003;45932;50.658;3.022;2022-09-09T04:50:29;1.00;1.00;1.00
60058;PMS7003;45932;50.658;3.022;2022-09-09T04:52:55;1.67;1.67;1.00
60058;PMS7003;45932;50.658;3.022;2022-09-09T04:55:20;2.00;2.00;1.50
60058;PMS7003;45932;50.658;3.022;2022-09-09T04:57:45;2.00;1.67;1.00
60058;PMS7003;45932;50.658;3.022;2022-09-09T05:00:11;1.33;1.33;1.00
60058;PMS7003;45932;50.658;3.022;2022-09-09T05:02:38;4.33;2.33;1.33
60058;PMS7003;45932;50.658;3.022;2022-09-09T05:05:03;2.00;0.33;0.33
60058;PMS7003;45932;50.658;3.022;2022-09-09T05:07:29;1.33;1.33;1.00
60058;PMS7003;45932;50.658;3.022;2022-09-09T05:09:56;3.00;2.00;2.00
60058;PMS7003;45932;50.658;3.022;2022-09-09T05:12:21;2.67;2.00;1.00
60058;PMS7003;45932;50.658;3.022;2022-09-09T05:14:48;5.00;1.67;1.00
60058;PMS7003;45932;50.658;3.022;2022-09-09T05:17:13;2.33;2.33;1.33
60058;PMS7003;45932;50.658;3.022;2022-09-09T05:19:40;4.00;2.00;2.00
60058;PMS7003;45932;50.658;3.022;2022-09-09T05:22:05;2.67;1.00;1.00
60058;PMS7003;45932;50.658;3.022;2022-09-09T05:24:30;1.00;1.00;1.00
60058;PMS7003;45932;50.658;3.022;2022-09-09T05:26:58;2.00;1.33;1.00
60058;PMS7003;45932;50.658;3.022;2022-09-09T05:29:24;2.00;2.00;1.00
60058;PMS7003;45932;50.658;3.022;2022-09-09T05:31:51;1.67;0.33;0.00
60058;PMS7003;45932;50.658;3.022;2022-09-09T05:34:16;3.33;1.00;1.00
60058;PMS7003;45932;50.658;3.022;2022-09-09T05:36:42;1.33;1.33;1.00
60058;PMS7003;45932;50.658;3.022;2022-09-09T05:39:07;1.33;1.00;1.00
60058;PMS7003;45932;50.658;3.022;2022-09-09T05:41:32;2.33;2.33;2.33
60058;PMS7003;45932;50.658;3.022;2022-09-09T05:43:58;2.67;2.00;2.00
60058;PMS7003;45932;50.658;3.022;2022-09-09T05:46:26;1.00;1.00;1.00
60058;PMS7003;45932;50.658;3.022;2022-09-09T05:48:52;3.67;3.67;2.00
60058;PMS7003;45932;50.658;3.022;2022-09-09T05:51:20;3.67;2.33;1.67
60058;PMS7003;45932;50.658;3.022;2022-09-09T05:53:49;2.67;2.33;1.67
60058;PMS7003;45932;50.658;3.022;2022-09-09T05:56:20;4.00;2.67;2.00
60058;PMS7003;45932;50.658;3.022;2022-09-09T05:58:47;3.00;3.00;1.67
60058;PMS7003;45932;50.658;3.022;2022-09-09T06:01:14;4.00;3.67;2.00
60058;PMS7003;45932;50.658;3.022;2022-09-09T06:03:43;6.33;4.00;2.00
60058;PMS7003;45932;50.658;3.022;2022-09-09T06:06:13;0.33;0.33;0.33
60058;PMS7003;45932;50.658;3.022;2022-09-09T06:08:42;2.00;2.00;1.00
60058;PMS7003;45932;50.658;3.022;2022-09-09T06:11:14;4.33;1.67;1.00
60058;PMS7003;45932;50.658;3.022;2022-09-09T06:13:41;5.00;3.00;1.33
60058;PMS7003;45932;50.658;3.022;2022-09-09T06:16:11;3.33;2.00;1.00
60058;PMS7003;45932;50.658;3.022;2022-09-09T06:18:38;3.67;1.67;1.67
60058;PMS7003;45932;50.658;3.022;2022-09-09T06:21:05;2.33;2.33;2.00
60058;PMS7003;45932;50.658;3.022;2022-09-09T06:23:32;4.33;2.33;2.33
60058;PMS7003;45932;50.658;3.022;2022-09-09T06:26:05;3.00;3.00;3.00
60058;PMS7003;45932;50.658;3.022;2022-09-09T06:28:32;3.00;1.67;1.33
60058;PMS7003;45932;50.658;3.022;2022-09-09T06:31:02;3.00;3.00;3.00
60058;PMS7003;45932;50.658;3.022;2022-09-09T06:33:30;9.00;5.00;3.00
60058;PMS7003;45932;50.658;3.022;2022-09-09T06:35:59;5.50;5.00;3.00
60058;PMS7003;45932;50.658;3.022;2022-09-09T06:38:25;4.67;4.67;4.00
60058;PMS7003;45932;50.658;3.022;2022-09-09T06:40:51;2.33;2.33;2.00
60058;PMS7003;45932;50.658;3.022;2022-09-09T06:43:19;3.00;3.00;3.00
60058;PMS7003;45932;50.658;3.022;2022-09-09T06:45:52;3.00;3.00;2.00
60058;PMS7003;45932;50.658;3.022;2022-09-09T06:48:20;3.33;3.33;3.33
60058;PMS7003;45932;50.658;3.022;2022-09-09T06:50:46;4.33;3.67;2.00
60058;PMS7003;45932;50.658;3.022;2022-09-09T06:53:11;5.33;3.00;2.00
60058;PMS7003;45932;50.658;3.022;2022-09-09T06:55:37;4.33;4.33;3.00
60058;PMS7003;45932;50.658;3.022;2022-09-09T06:58:07;2.00;2.00;2.00
60058;PMS7003;45932;50.658;3.022;2022-09-09T07:00:33;1.67;1.00;1.00
60058;PMS7003;45932;50.658;3.022;2022-09-09T07:02:58;5.00;3.00;2.00
60058;PMS7003;45932;50.658;3.022;2022-09-09T07:05:24;5.33;3.00;2.00
60058;PMS7003;45932;50.658;3.022;2022-09-09T07:07:50;5.67;4.00;2.00
60058;PMS7003;45932;50.658;3.022;2022-09-09T07:10:16;4.33;2.67;2.33
60058;PMS7003;45932;50.658;3.022;2022-09-09T07:12:42;4.67;4.00;3.00
60058;PMS7003;45932;50.658;3.022;2022-09-09T07:15:08;7.33;4.67;3.33
60058;PMS7003;45932;50.658;3.022;2022-09-09T07:17:33;2.67;2.33;1.00
60058;PMS7003;45932;50.658;3.022;2022-09-09T07:19:59;3.33;1.33;1.00
60058;PMS7003;45932;50.658;3.022;2022-09-09T07:22:24;1.00;1.00;1.00
60058;PMS7003;45932;50.658;3.022;2022-09-09T07:24:50;3.00;3.00;3.00
60058;PMS7003;45932;50.658;3.022;2022-09-09T07:27:15;3.00;3.00;2.00
60058;PMS7003;45932;50.658;3.022;2022-09-09T07:29:40;3.67;2.00;1.00
60058;PMS7003;45932;50.658;3.022;2022-09-09T07:32:06;3.00;2.00;2.00
60058;PMS7003;45932;50.658;3.022;2022-09-09T07:34:31;3.00;3.00;2.00
60058;PMS7003;45932;50.658;3.022;2022-09-09T07:36:56;4.33;2.00;1.33
60058;PMS7003;45932;50.658;3.022;2022-09-09T07:39:22;5.00;3.33;3.00
60058;PMS7003;45932;50.658;3.022;2022-09-09T07:41:48;3.33;3.00;3.00
60058;PMS7003;45932;50.658;3.022;2022-09-09T07:44:18;2.33;2.00;2.00
60058;PMS7003;45932;50.658;3.022;2022-09-09T07:46:48;3.67;2.00;1.00
60058;PMS7003;45932;50.658;3.022;2022-09-09T07:49:13;2.67;2.67;2.00
60058;PMS7003;45932;50.658;3.022;2022-09-09T07:51:41;3.33;2.00;1.00
60058;PMS7003;45932;50.658;3.022;2022-09-09T07:54:10;2.00;1.33;1.00
60058;PMS7003;45932;50.658;3.022;2022-09-09T07:56:37;2.33;2.33;2.00
60058;PMS7003;45932;50.658;3.022;2022-09-09T07:59:04;2.00;2.00;2.00
60058;PMS7003;45932;50.658;3.022;2022-09-09T08:01:32;2.33;2.33;1.33
60058;PMS7003;45932;50.658;3.022;2022-09-09T08:04:12;0.00;0.00;0.00
60058;PMS7003;45932;50.658;3.022;2022-09-09T08:06:40;2.00;2.00;2.00
60058;PMS7003;45932;50.658;3.022;2022-09-09T08:09:07;3.00;2.00;1.00
60058;PMS7003;45932;50.658;3.022;2022-09-09T08:11:34;2.33;2.00;1.67
60058;PMS7003;45932;50.658;3.022;2022-09-09T08:14:03;2.33;2.33;1.00
60058;PMS7003;45932;50.658;3.022;2022-09-09T08:16:31;3.00;3.00;2.00
60058;PMS7003;45932;50.658;3.022;2022-09-09T08:18:57;1.00;1.00;1.00
60058;PMS7003;45932;50.658;3.022;2022-09-09T08:21:24;2.33;2.00;2.00
60058;PMS7003;45932;50.658;3.022;2022-09-09T08:23:55;1.00;1.00;1.00
60058;PMS7003;45932;50.658;3.022;2022-09-09T08:26:22;1.00;1.00;0.00
60058;PMS7003;45932;50.658;3.022;2022-09-09T08:28:52;2.00;1.33;1.00
60058;PMS7003;45932;50.658;3.022;2022-09-09T08:33:48;1.33;1.33;1.00
60058;PMS7003;45932;50.658;3.022;2022-09-09T08:36:14;2.00;2.00;1.67
60058;PMS7003;45932;50.658;3.022;2022-09-09T08:38:42;2.33;2.00;1.00
60058;PMS7003;45932;50.658;3.022;2022-09-09T08:41:26;1.00;1.00;1.00
60058;PMS7003;45932;50.658;3.022;2022-09-09T08:44:07;2.00;2.00;1.00
60058;PMS7003;45932;50.658;3.022;2022-09-09T08:46:44;1.67;1.67;0.67
60058;PMS7003;45932;50.658;3.022;2022-09-09T08:49:29;2.67;2.00;1.00
60058;PMS7003;45932;50.658;3.022;2022-09-09T08:57:47;2.00;2.00;1.00
60058;PMS7003;45932;50.658;3.022;2022-09-09T09:00:16;1.67;1.67;0.67
60058;PMS7003;45932;50.658;3.022;2022-09-09T09:02:48;1.00;1.00;1.00
60058;PMS7003;45932;50.658;3.022;2022-09-09T09:05:46;3.00;1.33;1.00
60058;PMS7003;45932;50.658;3.022;2022-09-09T09:11:23;3.00;2.00;2.00
60058;PMS7003;45932;50.658;3.022;2022-09-09T09:13:54;1.33;1.33;1.00
60058;PMS7003;45932;50.658;3.022;2022-09-09T09:16:31;2.00;2.00;1.00
60058;PMS7003;45932;50.658;3.022;2022-09-09T09:19:08;4.00;1.00;1.00
60058;PMS7003;45932;50.658;3.022;2022-09-09T09:21:43;2.33;1.00;0.67
60058;PMS7003;45932;50.658;3.022;2022-09-09T09:24:20;2.00;2.00;2.00
60058;PMS7003;45932;50.658;3.022;2022-09-09T09:26:48;0.67;0.67;0.00
60058;PMS7003;45932;50.658;3.022;2022-09-09T09:29:17;1.00;1.00;1.00
60058;PMS7003;45932;50.658;3.022;2022-09-09T09:31:53;1.00;1.00;0.67
60058;PMS7003;45932;50.658;3.022;2022-09-09T09:34:22;2.00;1.67;1.00
60058;PMS7003;45932;50.658;3.022;2022-09-09T09:36:53;1.00;1.00;1.00
60058;PMS7003;45932;50.658;3.022;2022-09-09T09:39:24;3.00;2.00;1.33
60058;PMS7003;45932;50.658;3.022;2022-09-09T09:41:54;1.67;1.67;1.00
60058;PMS7003;45932;50.658;3.022;2022-09-09T09:44:22;0.67;0.67;0.00
60058;PMS7003;45932;50.658;3.022;2022-09-09T09:49:54;2.00;2.00;1.00
60058;PMS7003;45932;50.658;3.022;2022-09-09T09:52:25;2.33;1.33;1.00
60058;PMS7003;45932;50.658;3.022;2022-09-09T09:54:53;2.67;1.33;1.00
60058;PMS7003;45932;50.658;3.022;2022-09-09T09:57:27;1.00;1.00;1.00
60058;PMS7003;45932;50.658;3.022;2022-09-09T10:02:42;1.00;1.00;1.00
60058;PMS7003;45932;50.658;3.022;2022-09-09T10:05:16;3.00;1.00;0.67
60058;PMS7003;45932;50.658;3.022;2022-09-09T10:07:45;1.00;1.00;1.00
60058;PMS7003;45932;50.658;3.022;2022-09-09T10:10:12;1.00;1.00;1.00
60058;PMS7003;45932;50.658;3.022;2022-09-09T10:15:30;1.00;1.00;0.67
60058;PMS7003;45932;50.658;3.022;2022-09-09T10:20:44;3.00;2.33;1.00
60058;PMS7003;45932;50.658;3.022;2022-09-09T10:40:12;3.00;1.00;0.00
60058;PMS7003;45932;50.658;3.022;2022-09-09T10:59:48;1.33;1.00;0.00
60058;PMS7003;45932;50.658;3.022;2022-09-09T11:02:21;1.00;1.00;1.00
60058;PMS7003;45932;50.658;3.022;2022-09-09T11:05:04;0.33;0.33;0.00
60058;PMS7003;45932;50.658;3.022;2022-09-09T11:07:40;1.33;1.00;1.00
60058;PMS7003;45932;50.658;3.022;2022-09-09T11:10:27;1.00;1.00;0.00
60058;PMS7003;45932;50.658;3.022;2022-09-09T11:13:02;1.67;1.00;0.00
60058;PMS7003;45932;50.658;3.022;2022-09-09T11:15:41;4.00;2.00;1.67
60058;PMS7003;45932;50.658;3.022;2022-09-09T11:18:12;1.00;1.00;1.00
60058;PMS7003;45932;50.658;3.022;2022-09-09T11:20:43;1.00;1.00;0.00
60058;PMS7003;45932;50.658;3.022;2022-09-09T11:23:17;1.00;1.00;1.00
60058;PMS7003;45932;50.658;3.022;2022-09-09T11:25:57;0.00;0.00;0.00
60058;PMS7003;45932;50.658;3.022;2022-09-09T11:34:32;2.67;2.00;1.00
60058;PMS7003;45932;50.658;3.022;2022-09-09T11:42:34;1.33;1.00;0.00
60058;PMS7003;45932;50.658;3.022;2022-09-09T11:47:56;2.00;1.00;1.00
60058;PMS7003;45932;50.658;3.022;2022-09-09T11:52:49;2.33;2.00;1.33
60058;PMS7003;45932;50.658;3.022;2022-09-09T11:55:29;4.00;2.00;1.00
60058;PMS7003;45932;50.658;3.022;2022-09-09T12:03:03;3.00;3.00;1.00
60058;PMS7003;45932;50.658;3.022;2022-09-09T12:06:08;1.00;1.00;1.00
60058;PMS7003;45932;50.658;3.022;2022-09-09T12:08:24;3.00;3.00;1.00
60058;PMS7003;45932;50.658;3.022;2022-09-09T12:10:54;1.00;1.00;1.00
60058;PMS7003;45932;50.658;3.022;2022-09-09T12:13:23;5.00;2.00;2.00
60058;PMS7003;45932;50.658;3.022;2022-09-09T12:15:59;2.00;2.00;2.00
60058;PMS7003;45932;50.658;3.022;2022-09-09T12:18:34;1.33;1.00;1.00
60058;PMS7003;45932;50.658;3.022;2022-09-09T12:23:30;3.00;2.00;2.00
60058;PMS7003;45932;50.658;3.022;2022-09-09T12:32:14;2.00;2.00;2.00
60058;PMS7003;45932;50.658;3.022;2022-09-09T12:34:49;3.33;3.33;2.33
60058;PMS7003;45932;50.658;3.022;2022-09-09T12:39:59;2.00;2.00;1.33
60058;PMS7003;45932;50.658;3.022;2022-09-09T12:42:27;2.67;2.67;2.00
60058;PMS7003;45932;50.658;3.022;2022-09-09T12:44:59;3.67;3.67;3.00
60058;PMS7003;45932;50.658;3.022;2022-09-09T12:47:39;7.33;6.67;4.67
60058;PMS7003;45932;50.658;3.022;2022-09-09T12:50:23;6.00;3.00;3.00
60058;PMS7003;45932;50.658;3.022;2022-09-09T12:52:52;3.00;3.00;2.00
60058;PMS7003;45932;50.658;3.022;2022-09-09T12:55:25;3.67;3.67;2.33
60058;PMS7003;45932;50.658;3.022;2022-09-09T12:57:55;2.33;2.33;2.00
60058;PMS7003;45932;50.658;3.022;2022-09-09T13:00:22;4.33;3.00;2.67
60058;PMS7003;45932;50.658;3.022;2022-09-09T13:02:59;2.33;2.33;2.00
60058;PMS7003;45932;50.658;3.022;2022-09-09T13:05:40;3.00;3.00;3.00
60058;PMS7003;45932;50.658;3.022;2022-09-09T13:08:07;2.33;2.00;1.33
60058;PMS7003;45932;50.658;3.022;2022-09-09T13:10:46;6.33;4.00;3.00
60058;PMS7003;45932;50.658;3.022;2022-09-09T13:13:21;4.00;4.00;3.33
60058;PMS7003;45932;50.658;3.022;2022-09-09T13:15:58;6.33;3.67;2.33
60058;PMS7003;45932;50.658;3.022;2022-09-09T13:18:29;6.67;5.33;2.67
60058;PMS7003;45932;50.658;3.022;2022-09-09T13:20:58;6.33;3.67;2.67
60058;PMS7003;45932;50.658;3.022;2022-09-09T13:23:25;2.67;2.67;2.67
60058;PMS7003;45932;50.658;3.022;2022-09-09T13:26:04;2.00;2.00;1.67
60058;PMS7003;45932;50.658;3.022;2022-09-09T13:28:50;4.00;4.00;3.00
60058;PMS7003;45932;50.658;3.022;2022-09-09T13:31:30;6.67;5.00;3.00
60058;PMS7003;45932;50.658;3.022;2022-09-09T13:34:10;4.00;4.00;2.67
60058;PMS7003;45932;50.658;3.022;2022-09-09T13:36:38;4.00;3.33;3.00
60058;PMS7003;45932;50.658;3.022;2022-09-09T13:39:04;5.67;3.33;2.33
60058;PMS7003;45932;50.658;3.022;2022-09-09T13:41:32;3.33;3.00;2.00
60058;PMS7003;45932;50.658;3.022;2022-09-09T13:44:01;3.00;3.00;2.33
60058;PMS7003;45932;50.658;3.022;2022-09-09T13:46:34;5.00;5.00;3.00
60058;PMS7003;45932;50.658;3.022;2022-09-09T13:51:49;4.00;4.00;3.33
60058;PMS7003;45932;50.658;3.022;2022-09-09T13:54:17;5.00;4.00;3.00
60058;PMS7003;45932;50.658;3.022;2022-09-09T13:56:44;4.33;3.33;2.67
60058;PMS7003;45932;50.658;3.022;2022-09-09T13:59:14;3.00;3.00;2.67
60058;PMS7003;45932;50.658;3.022;2022-09-09T14:01:41;4.00;4.00;2.67
60058;PMS7003;45932;50.658;3.022;2022-09-09T14:04:07;3.00;3.00;3.00
60058;PMS7003;45932;50.658;3.022;2022-09-09T14:06:33;7.33;4.00;3.00
60058;PMS7003;45932;50.658;3.022;2022-09-09T14:09:02;3.33;3.33;3.00
60058;PMS7003;45932;50.658;3.022;2022-09-09T14:11:27;4.00;4.00;4.00
60058;PMS7003;45932;50.658;3.022;2022-09-09T14:13:53;4.67;4.67;4.00
60058;PMS7003;45932;50.658;3.022;2022-09-09T14:16:18;3.67;3.67;2.00
60058;PMS7003;45932;50.658;3.022;2022-09-09T14:18:44;4.67;3.00;3.00
60058;PMS7003;45932;50.658;3.022;2022-09-09T14:21:10;2.33;2.33;2.00
60058;PMS7003;45932;50.658;3.022;2022-09-09T14:23:36;3.00;2.00;2.00
60058;PMS7003;45932;50.658;3.022;2022-09-09T14:26:03;2.00;2.00;2.00
60058;PMS7003;45932;50.658;3.022;2022-09-09T14:28:29;5.00;3.00;2.00
60058;PMS7003;45932;50.658;3.022;2022-09-09T14:30:54;3.00;2.00;2.00
60058;PMS7003;45932;50.658;3.022;2022-09-09T14:33:19;3.00;2.00;2.00
60058;PMS7003;45932;50.658;3.022;2022-09-09T14:35:46;3.33;2.00;2.00
60058;PMS7003;45932;50.658;3.022;2022-09-09T14:38:11;3.00;3.00;1.67
60058;PMS7003;45932;50.658;3.022;2022-09-09T14:40:37;3.00;3.00;2.00
60058;PMS7003;45932;50.658;3.022;2022-09-09T14:43:03;3.00;2.67;2.00
60058;PMS7003;45932;50.658;3.022;2022-09-09T14:45:30;4.33;2.00;1.67
60058;PMS7003;45932;50.658;3.022;2022-09-09T14:47:55;5.67;3.00;2.00
60058;PMS7003;45932;50.658;3.022;2022-09-09T14:50:21;1.00;1.00;1.00
60058;PMS7003;45932;50.658;3.022;2022-09-09T14:52:47;4.00;3.00;3.00
60058;PMS7003;45932;50.658;3.022;2022-09-09T14:55:13;1.00;1.00;0.67
60058;PMS7003;45932;50.658;3.022;2022-09-09T14:57:39;1.00;1.00;0.67
60058;PMS7003;45932;50.658;3.022;2022-09-09T15:00:06;1.00;1.00;1.00
60058;PMS7003;45932;50.658;3.022;2022-09-09T15:02:33;0.33;0.33;0.00
60058;PMS7003;45932;50.658;3.022;2022-09-09T15:04:59;2.00;1.00;1.00
60058;PMS7003;45932;50.658;3.022;2022-09-09T15:07:25;0.00;0.00;0.00
60058;PMS7003;45932;50.658;3.022;2022-09-09T15:09:52;1.00;1.00;1.00
60058;PMS7003;45932;50.658;3.022;2022-09-09T15:12:17;1.00;1.00;0.00
60058;PMS7003;45932;50.658;3.022;2022-09-09T15:14:46;0.33;0.33;0.33
60058;PMS7003;45932;50.658;3.022;2022-09-09T15:17:12;3.00;1.00;0.67
60058;PMS7003;45932;50.658;3.022;2022-09-09T15:19:37;0.33;0.33;0.00
60058;PMS7003;45932;50.658;3.022;2022-09-09T15:22:04;1.67;1.00;1.00
60058;PMS7003;45932;50.658;3.022;2022-09-09T15:24:33;0.00;0.00;0.00
60058;PMS7003;45932;50.658;3.022;2022-09-09T15:26:58;2.33;1.00;1.00
60058;PMS7003;45932;50.658;3.022;2022-09-09T15:29:24;1.00;1.00;1.00
60058;PMS7003;45932;50.658;3.022;2022-09-09T15:31:49;0.33;0.00;0.00
60058;PMS7003;45932;50.658;3.022;2022-09-09T15:34:14;0.33;0.33;0.00
60058;PMS7003;45932;50.658;3.022;2022-09-09T15:36:41;0.67;0.67;0.00
60058;PMS7003;45932;50.658;3.022;2022-09-09T15:39:09;1.00;1.00;1.00
60058;PMS7003;45932;50.658;3.022;2022-09-09T15:41:37;1.33;1.33;1.00
60058;PMS7003;45932;50.658;3.022;2022-09-09T15:44:03;1.00;1.00;1.00
60058;PMS7003;45932;50.658;3.022;2022-09-09T15:48:56;1.00;0.33;0.00
60058;PMS7003;45932;50.658;3.022;2022-09-09T15:51:44;1.00;1.00;0.33
60058;PMS7003;45932;50.658;3.022;2022-09-09T15:54:11;1.00;1.00;0.67
60058;PMS7003;45932;50.658;3.022;2022-09-09T15:56:39;1.00;1.00;0.33
60058;PMS7003;45932;50.658;3.022;2022-09-09T15:59:05;0.00;0.00;0.00
60058;PMS7003;45932;50.658;3.022;2022-09-09T16:01:31;1.00;1.00;0.00
60058;PMS7003;45932;50.658;3.022;2022-09-09T16:03:57;1.00;1.00;1.00
60058;PMS7003;45932;50.658;3.022;2022-09-09T16:06:24;0.67;0.67;0.33
60058;PMS7003;45932;50.658;3.022;2022-09-09T16:08:50;0.00;0.00;0.00
60058;PMS7003;45932;50.658;3.022;2022-09-09T16:11:18;0.67;0.67;0.33
60058;PMS7003;45932;50.658;3.022;2022-09-09T16:13:46;2.67;1.00;0.00
60058;PMS7003;45932;50.658;3.022;2022-09-09T16:16:17;2.00;1.00;0.33
60058;PMS7003;45932;50.658;3.022;2022-09-09T16:18:45;1.00;0.00;0.00
60058;PMS7003;45932;50.658;3.022;2022-09-09T16:21:14;1.00;1.00;0.00
60058;PMS7003;45932;50.658;3.022;2022-09-09T16:23:41;1.00;1.00;0.00
60058;PMS7003;45932;50.658;3.022;2022-09-09T16:26:08;1.67;1.00;1.00
60058;PMS7003;45932;50.658;3.022;2022-09-09T16:28:36;1.00;1.00;0.00
60058;PMS7003;45932;50.658;3.022;2022-09-09T16:31:08;1.00;1.00;1.00
60058;PMS7003;45932;50.658;3.022;2022-09-09T16:33:38;1.00;1.00;0.33
60058;PMS7003;45932;50.658;3.022;2022-09-09T16:36:15;1.00;1.00;1.00
60058;PMS7003;45932;50.658;3.022;2022-09-09T16:38:43;1.67;1.00;1.00
60058;PMS7003;45932;50.658;3.022;2022-09-09T16:41:09;0.33;0.33;0.00
60058;PMS7003;45932;50.658;3.022;2022-09-09T16:43:35;1.00;1.00;1.00
60058;PMS7003;45932;50.658;3.022;2022-09-09T16:46:14;2.33;2.00;1.00
60058;PMS7003;45932;50.658;3.022;2022-09-09T16:48:43;1.33;1.33;1.00
60058;PMS7003;45932;50.658;3.022;2022-09-09T16:51:17;1.67;1.67;1.00
60058;PMS7003;45932;50.658;3.022;2022-09-09T16:53:44;3.00;2.00;1.67
60058;PMS7003;45932;50.658;3.022;2022-09-09T16:56:11;3.00;2.00;1.00
60058;PMS7003;45932;50.658;3.022;2022-09-09T16:58:39;1.00;1.00;1.00
60058;PMS7003;45932;50.658;3.022;2022-09-09T17:01:08;2.00;2.00;1.00